CST,Max TemperatureF,Mean TemperatureF,Min TemperatureF,Max Dew PointF,MeanDew PointF,Min DewpointF,Max Humidity, Mean Humidity, Min Humidity, Max Sea Level PressureIn, Mean Sea Level PressureIn, Min Sea Level PressureIn, Max VisibilityMiles, Mean VisibilityMiles, Min VisibilityMiles, Max Wind SpeedMPH, Mean Wind SpeedMPH, Max Gust SpeedMPH,PrecipitationIn, CloudCover, Events, WindDirDegrees
2012-1-1,54,48,37,48,26,15,86,44,25,30.41,30.21,29.81,10,10,10,21,13,37,0.00,1,,297
2012-1-2,39,34,28,14,7,3,46,33,23,30.52,30.44,30.39,10,10,10,24,15,37,0.00,0,,314
2012-1-3,36,28,19,21,12,7,69,51,38,30.60,30.47,30.27,10,10,10,13,6,16,0.00,0,,223
2012-1-4,52,41,30,35,28,21,82,66,48,30.27,30.19,30.09,10,10,10,13,7,,0.00,0,,212
2012-1-5,59,44,30,40,33,27,92,67,44,30.24,30.12,29.97,10,10,10,13,5,,0.00,0,,211
2012-1-6,62,49,36,51,41,31,90,73,46,30.00,29.92,29.85,10,10,9,15,9,,0.00,0,,211
2012-1-7,57,48,39,48,34,27,100,65,33,30.18,30.04,29.91,10,7,0,13,6,,0.00,2,Fog,27
2012-1-8,48,44,39,37,32,30,82,61,50,30.26,30.22,30.19,10,10,8,12,8,,0.05,7,Rain,31
2012-1-9,54,44,33,38,35,30,89,71,40,30.25,30.18,30.14,10,10,7,7,4,,0.00,2,,26
2012-1-10,52,41,30,41,35,26,93,77,45,30.13,29.89,29.68,10,8,2,13,5,,0.70,5,Rain,22
2012-1-11,51,46,42,44,42,35,100,89,66,29.67,29.60,29.57,10,7,2,20,7,31,0.00,7,Rain,296
2012-1-12,43,34,24,34,21,10,86,69,55,30.02,29.81,29.64,10,8,1,25,15,33,0.01,7,Snow,295
2012-1-13,36,30,24,16,12,8,69,51,37,30.20,30.12,30.01,10,10,10,12,8,21,0.00,1,,260
2012-1-14,51,37,23,26,22,14,85,61,38,30.35,30.15,30.01,10,10,10,20,5,29,0.00,1,,275
2012-1-15,45,34,23,31,26,20,88,73,53,30.46,30.34,30.18,10,10,9,13,4,18,0.00,0,,160
2012-1-16,64,54,45,57,49,34,82,74,63,30.12,29.95,29.83,10,10,10,24,14,36,0.01,7,Thunderstorm,191
2012-1-17,64,46,28,59,39,19,88,71,53,30.37,30.01,29.73,10,9,0,28,19,38,0.23,2,Fog-Rain-Thunderstorm,298
2012-1-18,33,27,21,26,20,15,85,73,64,30.39,30.25,30.08,10,10,8,10,6,,0.00,1,,53
2012-1-19,51,40,30,36,29,24,89,72,52,30.07,30.01,29.93,10,10,10,13,5,,0.00,2,,134
2012-1-20,39,34,30,35,30,23,93,80,75,30.06,29.92,29.78,10,9,5,14,10,20,0.00,8,,28
2012-1-21,35,32,28,30,26,23,85,77,70,30.20,30.09,29.94,10,10,8,16,12,22,0.00,8,,28
2012-1-22,62,48,33,59,45,28,100,93,81,30.05,29.77,29.54,10,4,0,24,9,41,1.16,8,Fog-Rain-Thunderstorm,156
2012-1-23,57,47,36,53,36,31,87,64,43,30.09,29.87,29.55,10,10,10,21,13,28,0.00,2,,241
2012-1-24,51,40,30,38,33,27,92,74,52,30.32,30.26,30.11,10,10,10,8,2,,0.00,0,,64
2012-1-25,41,39,37,38,36,32,93,88,73,30.25,30.09,29.86,10,7,2,16,10,22,0.62,8,Rain,49
2012-1-26,45,42,39,41,38,36,100,90,81,29.88,29.81,29.73,10,6,2,15,6,,0.20,8,Rain,337
2012-1-27,46,39,32,41,36,30,93,81,68,30.07,29.99,29.85,10,10,8,6,3,,0.00,1,Rain,220
2012-1-28,48,39,30,41,26,14,93,61,27,30.38,30.28,29.99,10,10,8,23,9,30,0.00,1,,300
2012-1-29,54,42,30,35,29,22,82,63,46,30.35,30.30,30.25,10,10,10,17,7,,0.00,0,,213
2012-1-30,59,48,36,41,35,30,79,62,47,30.26,30.19,30.11,10,10,10,20,9,26,0.00,0,,206
2012-1-31,61,52,44,54,47,33,90,75,61,30.13,30.08,30.01,10,10,10,17,8,26,0.00,6,Rain,193